sensor_id;sensor_type;location;lat;lon;timestamp;P1;durP1;ratioP1;P2;durP2;ratioP2
37409;SDS011;23275;48.914;12.566;2023-02-23T00:01:13;11.07;;;5.63;;
37409;SDS011;23275;48.914;12.566;2023-02-23T00:03:41;9.25;;;6.03;;
37409;SDS011;23275;48.914;12.566;2023-02-23T00:06:07;11.38;;;6.38;;
37409;SDS011;23275;48.914;12.566;2023-02-23T00:08:34;12.25;;;7.30;;
37409;SDS011;23275;48.914;12.566;2023-02-23T00:11:04;9.82;;;6.53;;
37409;SDS011;23275;48.914;12.566;2023-02-23T00:13:33;11.98;;;7.15;;
37409;SDS011;23275;48.914;12.566;2023-02-23T00:16:09;15.23;;;7.70;;
37409;SDS011;23275;48.914;12.566;2023-02-23T00:18:45;17.65;;;7.82;;
37409;SDS011;23275;48.914;12.566;2023-02-23T00:21:15;10.02;;;7.18;;
37409;SDS011;23275;48.914;12.566;2023-02-23T00:23:46;10.75;;;6.35;;
37409;SDS011;23275;48.914;12.566;2023-02-23T00:26:14;11.40;;;8.07;;
37409;SDS011;23275;48.914;12.566;2023-02-23T00:28:41;10.13;;;7.00;;
37409;SDS011;23275;48.914;12.566;2023-02-23T00:31:08;11.93;;;7.13;;
37409;SDS011;23275;48.914;12.566;2023-02-23T00:33:34;10.55;;;6.80;;
37409;SDS011;23275;48.914;12.566;2023-02-23T00:36:06;9.80;;;6.22;;
37409;SDS011;23275;48.914;12.566;2023-02-23T00:38:38;10.30;;;6.38;;
37409;SDS011;23275;48.914;12.566;2023-02-23T00:41:05;10.73;;;6.85;;
37409;SDS011;23275;48.914;12.566;2023-02-23T00:43:36;12.45;;;7.80;;
37409;SDS011;23275;48.914;12.566;2023-02-23T00:46:03;9.48;;;7.00;;
37409;SDS011;23275;48.914;12.566;2023-02-23T00:48:30;10.40;;;7.28;;
37409;SDS011;23275;48.914;12.566;2023-02-23T00:51:03;42.17;;;8.40;;
37409;SDS011;23275;48.914;12.566;2023-02-23T00:53:29;15.55;;;8.43;;
37409;SDS011;23275;48.914;12.566;2023-02-23T00:55:56;10.77;;;7.93;;
37409;SDS011;23275;48.914;12.566;2023-02-23T00:58:22;10.52;;;6.85;;
37409;SDS011;23275;48.914;12.566;2023-02-23T01:00:49;14.38;;;8.88;;
37409;SDS011;23275;48.914;12.566;2023-02-23T01:03:15;11.38;;;8.02;;
37409;SDS011;23275;48.914;12.566;2023-02-23T01:05:41;11.27;;;7.90;;
37409;SDS011;23275;48.914;12.566;2023-02-23T01:08:07;13.52;;;6.65;;
37409;SDS011;23275;48.914;12.566;2023-02-23T01:10:38;14.07;;;7.80;;
37409;SDS011;23275;48.914;12.566;2023-02-23T01:13:09;13.27;;;8.07;;
37409;SDS011;23275;48.914;12.566;2023-02-23T01:15:41;12.55;;;8.20;;
37409;SDS011;23275;48.914;12.566;2023-02-23T01:18:09;14.48;;;7.95;;
37409;SDS011;23275;48.914;12.566;2023-02-23T01:20:35;11.63;;;7.72;;
37409;SDS011;23275;48.914;12.566;2023-02-23T01:23:02;15.00;;;8.23;;
37409;SDS011;23275;48.914;12.566;2023-02-23T01:25:29;13.63;;;7.40;;
37409;SDS011;23275;48.914;12.566;2023-02-23T01:27:56;12.55;;;7.22;;
37409;SDS011;23275;48.914;12.566;2023-02-23T01:30:22;12.52;;;6.85;;
37409;SDS011;23275;48.914;12.566;2023-02-23T01:32:47;11.15;;;6.72;;
37409;SDS011;23275;48.914;12.566;2023-02-23T01:35:13;11.45;;;6.95;;
37409;SDS011;23275;48.914;12.566;2023-02-23T01:37:39;9.27;;;5.95;;
37409;SDS011;23275;48.914;12.566;2023-02-23T01:40:09;9.10;;;5.82;;
37409;SDS011;23275;48.914;12.566;2023-02-23T01:42:41;8.27;;;5.60;;
37409;SDS011;23275;48.914;12.566;2023-02-23T01:45:22;10.23;;;6.35;;
37409;SDS011;23275;48.914;12.566;2023-02-23T01:48:24;11.10;;;6.43;;
37409;SDS011;23275;48.914;12.566;2023-02-23T01:51:06;10.55;;;5.70;;
37409;SDS011;23275;48.914;12.566;2023-02-23T01:53:47;8.50;;;5.63;;
37409;SDS011;23275;48.914;12.566;2023-02-23T01:56:21;10.50;;;6.25;;
37409;SDS011;23275;48.914;12.566;2023-02-23T01:58:50;11.57;;;6.47;;
37409;SDS011;23275;48.914;12.566;2023-02-23T02:01:19;9.17;;;6.33;;
37409;SDS011;23275;48.914;12.566;2023-02-23T02:03:47;10.13;;;6.60;;
37409;SDS011;23275;48.914;12.566;2023-02-23T02:06:17;10.55;;;6.65;;
37409;SDS011;23275;48.914;12.566;2023-02-23T02:08:47;11.65;;;7.45;;
37409;SDS011;23275;48.914;12.566;2023-02-23T02:11:19;12.90;;;7.45;;
37409;SDS011;23275;48.914;12.566;2023-02-23T02:16:46;14.98;;;7.85;;
37409;SDS011;23275;48.914;12.566;2023-02-23T02:22:21;16.30;;;8.52;;
37409;SDS011;23275;48.914;12.566;2023-02-23T02:39:25;15.93;;;8.45;;
37409;SDS011;23275;48.914;12.566;2023-02-23T02:47:37;13.07;;;7.97;;
37409;SDS011;23275;48.914;12.566;2023-02-23T02:50:13;14.77;;;7.82;;
37409;SDS011;23275;48.914;12.566;2023-02-23T02:52:44;11.25;;;7.28;;
37409;SDS011;23275;48.914;12.566;2023-02-23T02:55:17;14.30;;;7.38;;
37409;SDS011;23275;48.914;12.566;2023-02-23T02:57:48;11.38;;;7.05;;
37409;SDS011;23275;48.914;12.566;2023-02-23T03:00:17;11.38;;;7.30;;
37409;SDS011;23275;48.914;12.566;2023-02-23T03:03:04;12.52;;;6.93;;
37409;SDS011;23275;48.914;12.566;2023-02-23T03:05:48;11.95;;;7.22;;
37409;SDS011;23275;48.914;12.566;2023-02-23T03:08:40;11.27;;;6.68;;
37409;SDS011;23275;48.914;12.566;2023-02-23T03:11:37;11.20;;;7.07;;
37409;SDS011;23275;48.914;12.566;2023-02-23T03:14:32;12.85;;;6.82;;
37409;SDS011;23275;48.914;12.566;2023-02-23T03:17:34;10.52;;;6.70;;
37409;SDS011;23275;48.914;12.566;2023-02-23T03:23:52;12.55;;;7.35;;
37409;SDS011;23275;48.914;12.566;2023-02-23T03:26:35;11.13;;;6.75;;
37409;SDS011;23275;48.914;12.566;2023-02-23T03:32:28;12.93;;;5.95;;
37409;SDS011;23275;48.914;12.566;2023-02-23T03:35:26;10.32;;;6.85;;
37409;SDS011;23275;48.914;12.566;2023-02-23T03:38:34;10.82;;;6.80;;
37409;SDS011;23275;48.914;12.566;2023-02-23T03:41:23;9.00;;;6.18;;
37409;SDS011;23275;48.914;12.566;2023-02-23T03:44:18;9.85;;;5.90;;
37409;SDS011;23275;48.914;12.566;2023-02-23T03:47:08;10.13;;;5.78;;
37409;SDS011;23275;48.914;12.566;2023-02-23T03:49:56;10.93;;;5.40;;
37409;SDS011;23275;48.914;12.566;2023-02-23T03:52:45;10.70;;;6.05;;
37409;SDS011;23275;48.914;12.566;2023-02-23T03:55:35;11.35;;;6.50;;
37409;SDS011;23275;48.914;12.566;2023-02-23T03:58:26;14.98;;;6.68;;
37409;SDS011;23275;48.914;12.566;2023-02-23T04:01:15;11.05;;;6.15;;
37409;SDS011;23275;48.914;12.566;2023-02-23T04:04:02;11.18;;;6.50;;
37409;SDS011;23275;48.914;12.566;2023-02-23T04:06:49;13.25;;;7.40;;
37409;SDS011;23275;48.914;12.566;2023-02-23T04:09:33;12.13;;;6.63;;
37409;SDS011;23275;48.914;12.566;2023-02-23T04:12:26;10.80;;;6.72;;
37409;SDS011;23275;48.914;12.566;2023-02-23T04:15:34;10.93;;;7.88;;
37409;SDS011;23275;48.914;12.566;2023-02-23T04:18:03;13.80;;;8.43;;
37409;SDS011;23275;48.914;12.566;2023-02-23T04:20:29;10.57;;;7.15;;
37409;SDS011;23275;48.914;12.566;2023-02-23T04:22:54;12.88;;;7.97;;
37409;SDS011;23275;48.914;12.566;2023-02-23T04:25:20;10.70;;;6.80;;
37409;SDS011;23275;48.914;12.566;2023-02-23T04:27:49;10.43;;;7.45;;
37409;SDS011;23275;48.914;12.566;2023-02-23T04:30:15;18.08;;;8.60;;
37409;SDS011;23275;48.914;12.566;2023-02-23T04:32:42;12.63;;;7.75;;
37409;SDS011;23275;48.914;12.566;2023-02-23T04:35:10;10.98;;;7.53;;
37409;SDS011;23275;48.914;12.566;2023-02-23T04:37:36;10.25;;;6.90;;
37409;SDS011;23275;48.914;12.566;2023-02-23T04:40:03;10.25;;;7.15;;
37409;SDS011;23275;48.914;12.566;2023-02-23T04:42:29;11.20;;;7.38;;
37409;SDS011;23275;48.914;12.566;2023-02-23T04:44:55;10.73;;;7.10;;
37409;SDS011;23275;48.914;12.566;2023-02-23T04:47:20;11.52;;;7.20;;
37409;SDS011;23275;48.914;12.566;2023-02-23T04:49:46;13.57;;;7.82;;
37409;SDS011;23275;48.914;12.566;2023-02-23T04:52:12;13.15;;;7.93;;
37409;SDS011;23275;48.914;12.566;2023-02-23T04:54:38;11.82;;;7.53;;
37409;SDS011;23275;48.914;12.566;2023-02-23T04:57:04;9.95;;;6.95;;
37409;SDS011;23275;48.914;12.566;2023-02-23T04:59:30;12.30;;;7.78;;
37409;SDS011;23275;48.914;12.566;2023-02-23T05:01:56;14.63;;;9.00;;
37409;SDS011;23275;48.914;12.566;2023-02-23T05:04:21;12.52;;;8.32;;
37409;SDS011;23275;48.914;12.566;2023-02-23T05:06:47;12.43;;;9.15;;
37409;SDS011;23275;48.914;12.566;2023-02-23T05:09:13;13.52;;;8.65;;
37409;SDS011;23275;48.914;12.566;2023-02-23T05:11:39;12.55;;;8.57;;
37409;SDS011;23275;48.914;12.566;2023-02-23T05:14:04;12.45;;;9.10;;
37409;SDS011;23275;48.914;12.566;2023-02-23T05:16:30;13.38;;;9.45;;
37409;SDS011;23275;48.914;12.566;2023-02-23T05:18:56;10.35;;;8.10;;
37409;SDS011;23275;48.914;12.566;2023-02-23T05:21:22;11.68;;;8.50;;
37409;SDS011;23275;48.914;12.566;2023-02-23T05:23:48;12.10;;;7.72;;
37409;SDS011;23275;48.914;12.566;2023-02-23T05:26:13;12.82;;;8.52;;
37409;SDS011;23275;48.914;12.566;2023-02-23T05:28:39;16.42;;;9.43;;
37409;SDS011;23275;48.914;12.566;2023-02-23T05:31:06;12.60;;;8.48;;
37409;SDS011;23275;48.914;12.566;2023-02-23T05:33:32;14.80;;;8.15;;
37409;SDS011;23275;48.914;12.566;2023-02-23T05:36:06;12.48;;;8.13;;
37409;SDS011;23275;48.914;12.566;2023-02-23T05:38:35;12.75;;;8.15;;
37409;SDS011;23275;48.914;12.566;2023-02-23T05:41:08;12.57;;;8.52;;
37409;SDS011;23275;48.914;12.566;2023-02-23T05:43:35;11.55;;;7.97;;
37409;SDS011;23275;48.914;12.566;2023-02-23T05:46:05;12.30;;;7.90;;
37409;SDS011;23275;48.914;12.566;2023-02-23T05:48:35;11.70;;;8.10;;
37409;SDS011;23275;48.914;12.566;2023-02-23T05:51:01;14.10;;;9.27;;
37409;SDS011;23275;48.914;12.566;2023-02-23T05:53:28;14.27;;;9.10;;
37409;SDS011;23275;48.914;12.566;2023-02-23T05:55:53;14.43;;;10.25;;
37409;SDS011;23275;48.914;12.566;2023-02-23T05:58:19;16.45;;;11.27;;
37409;SDS011;23275;48.914;12.566;2023-02-23T06:00:44;17.05;;;11.02;;
37409;SDS011;23275;48.914;12.566;2023-02-23T06:03:10;14.45;;;9.63;;
37409;SDS011;23275;48.914;12.566;2023-02-23T06:05:35;14.90;;;9.20;;
37409;SDS011;23275;48.914;12.566;2023-02-23T06:08:01;15.60;;;9.00;;
37409;SDS011;23275;48.914;12.566;2023-02-23T06:10:27;11.52;;;8.05;;
37409;SDS011;23275;48.914;12.566;2023-02-23T06:12:52;15.20;;;8.63;;
37409;SDS011;23275;48.914;12.566;2023-02-23T06:15:18;11.10;;;7.70;;
37409;SDS011;23275;48.914;12.566;2023-02-23T06:17:43;15.40;;;8.25;;
37409;SDS011;23275;48.914;12.566;2023-02-23T06:20:09;13.30;;;8.57;;
37409;SDS011;23275;48.914;12.566;2023-02-23T06:22:35;14.15;;;8.57;;
37409;SDS011;23275;48.914;12.566;2023-02-23T06:25:01;13.57;;;8.45;;
37409;SDS011;23275;48.914;12.566;2023-02-23T06:27:29;12.55;;;8.63;;
37409;SDS011;23275;48.914;12.566;2023-02-23T06:29:54;12.25;;;8.23;;
37409;SDS011;23275;48.914;12.566;2023-02-23T06:32:20;12.13;;;8.80;;
37409;SDS011;23275;48.914;12.566;2023-02-23T06:34:45;21.08;;;8.43;;
37409;SDS011;23275;48.914;12.566;2023-02-23T06:37:11;13.02;;;8.60;;
37409;SDS011;23275;48.914;12.566;2023-02-23T06:39:36;14.63;;;8.50;;
37409;SDS011;23275;48.914;12.566;2023-02-23T06:42:02;15.57;;;8.77;;
37409;SDS011;23275;48.914;12.566;2023-02-23T06:44:28;12.57;;;8.82;;
37409;SDS011;23275;48.914;12.566;2023-02-23T06:46:53;12.50;;;8.88;;
37409;SDS011;23275;48.914;12.566;2023-02-23T06:49:19;14.85;;;8.95;;
37409;SDS011;23275;48.914;12.566;2023-02-23T06:51:44;11.05;;;8.05;;
37409;SDS011;23275;48.914;12.566;2023-02-23T06:54:11;9.50;;;6.82;;
37409;SDS011;23275;48.914;12.566;2023-02-23T06:56:37;9.73;;;7.57;;
37409;SDS011;23275;48.914;12.566;2023-02-23T06:59:02;11.07;;;7.93;;
37409;SDS011;23275;48.914;12.566;2023-02-23T07:01:28;11.88;;;7.05;;
37409;SDS011;23275;48.914;12.566;2023-02-23T07:03:54;8.10;;;6.10;;
37409;SDS011;23275;48.914;12.566;2023-02-23T07:06:19;10.45;;;6.72;;
37409;SDS011;23275;48.914;12.566;2023-02-23T07:08:45;10.00;;;6.80;;
37409;SDS011;23275;48.914;12.566;2023-02-23T07:11:13;11.02;;;7.43;;
37409;SDS011;23275;48.914;12.566;2023-02-23T07:13:40;11.57;;;8.23;;
37409;SDS011;23275;48.914;12.566;2023-02-23T07:16:07;10.68;;;8.23;;
37409;SDS011;23275;48.914;12.566;2023-02-23T07:18:32;13.15;;;8.55;;
37409;SDS011;23275;48.914;12.566;2023-02-23T07:20:58;13.65;;;9.63;;
37409;SDS011;23275;48.914;12.566;2023-02-23T07:23:24;11.77;;;9.32;;
37409;SDS011;23275;48.914;12.566;2023-02-23T07:25:50;13.48;;;9.00;;
37409;SDS011;23275;48.914;12.566;2023-02-23T07:28:16;12.52;;;9.40;;
37409;SDS011;23275;48.914;12.566;2023-02-23T07:30:42;13.63;;;9.93;;
37409;SDS011;23275;48.914;12.566;2023-02-23T07:33:08;17.33;;;9.13;;
37409;SDS011;23275;48.914;12.566;2023-02-23T07:35:33;10.82;;;8.07;;
37409;SDS011;23275;48.914;12.566;2023-02-23T07:37:59;12.75;;;7.95;;
37409;SDS011;23275;48.914;12.566;2023-02-23T07:40:25;14.85;;;7.93;;
37409;SDS011;23275;48.914;12.566;2023-02-23T07:42:51;9.85;;;6.80;;
37409;SDS011;23275;48.914;12.566;2023-02-23T07:45:17;11.98;;;8.02;;
37409;SDS011;23275;48.914;12.566;2023-02-23T07:47:42;14.95;;;10.57;;
37409;SDS011;23275;48.914;12.566;2023-02-23T07:50:08;13.70;;;9.93;;
37409;SDS011;23275;48.914;12.566;2023-02-23T07:52:36;13.30;;;7.95;;
37409;SDS011;23275;48.914;12.566;2023-02-23T07:55:03;10.48;;;7.35;;
37409;SDS011;23275;48.914;12.566;2023-02-23T07:57:30;10.38;;;7.25;;
37409;SDS011;23275;48.914;12.566;2023-02-23T07:59:55;13.15;;;9.75;;
37409;SDS011;23275;48.914;12.566;2023-02-23T08:02:21;14.93;;;10.80;;
37409;SDS011;23275;48.914;12.566;2023-02-23T08:04:46;14.48;;;10.48;;
37409;SDS011;23275;48.914;12.566;2023-02-23T08:07:12;14.30;;;9.75;;
37409;SDS011;23275;48.914;12.566;2023-02-23T08:09:38;12.93;;;8.80;;
37409;SDS011;23275;48.914;12.566;2023-02-23T08:12:03;13.65;;;9.38;;
37409;SDS011;23275;48.914;12.566;2023-02-23T08:14:29;13.15;;;9.35;;
37409;SDS011;23275;48.914;12.566;2023-02-23T08:16:55;16.38;;;10.13;;
37409;SDS011;23275;48.914;12.566;2023-02-23T08:19:20;15.95;;;10.23;;
37409;SDS011;23275;48.914;12.566;2023-02-23T08:21:47;16.92;;;10.40;;
37409;SDS011;23275;48.914;12.566;2023-02-23T08:24:13;16.52;;;12.60;;
37409;SDS011;23275;48.914;12.566;2023-02-23T08:26:39;28.88;;;24.73;;
37409;SDS011;23275;48.914;12.566;2023-02-23T08:29:05;19.92;;;16.33;;
37409;SDS011;23275;48.914;12.566;2023-02-23T08:31:30;16.42;;;12.20;;
37409;SDS011;23275;48.914;12.566;2023-02-23T08:33:56;18.27;;;10.70;;
37409;SDS011;23275;48.914;12.566;2023-02-23T08:36:22;15.05;;;11.20;;
37409;SDS011;23275;48.914;12.566;2023-02-23T08:38:48;16.75;;;10.60;;
37409;SDS011;23275;48.914;12.566;2023-02-23T08:41:13;14.60;;;9.68;;
37409;SDS011;23275;48.914;12.566;2023-02-23T08:43:39;14.13;;;9.60;;
37409;SDS011;23275;48.914;12.566;2023-02-23T08:46:05;15.48;;;10.93;;
37409;SDS011;23275;48.914;12.566;2023-02-23T08:48:31;15.45;;;10.32;;
37409;SDS011;23275;48.914;12.566;2023-02-23T08:50:57;13.75;;;9.65;;
37409;SDS011;23275;48.914;12.566;2023-02-23T08:53:24;16.02;;;10.13;;
37409;SDS011;23275;48.914;12.566;2023-02-23T08:55:57;14.02;;;9.48;;
37409;SDS011;23275;48.914;12.566;2023-02-23T08:58:24;15.65;;;9.55;;
37409;SDS011;23275;48.914;12.566;2023-02-23T09:00:51;16.02;;;10.30;;
37409;SDS011;23275;48.914;12.566;2023-02-23T09:03:17;15.65;;;9.73;;
37409;SDS011;23275;48.914;12.566;2023-02-23T09:05:43;13.38;;;9.82;;
37409;SDS011;23275;48.914;12.566;2023-02-23T09:08:09;13.60;;;9.20;;
37409;SDS011;23275;48.914;12.566;2023-02-23T09:10:36;15.30;;;9.75;;
37409;SDS011;23275;48.914;12.566;2023-02-23T09:13:02;13.07;;;9.23;;
37409;SDS011;23275;48.914;12.566;2023-02-23T09:15:27;16.23;;;9.27;;
37409;SDS011;23275;48.914;12.566;2023-02-23T09:17:53;12.98;;;8.95;;
37409;SDS011;23275;48.914;12.566;2023-02-23T09:20:18;13.55;;;8.73;;
37409;SDS011;23275;48.914;12.566;2023-02-23T09:22:44;12.60;;;8.52;;
37409;SDS011;23275;48.914;12.566;2023-02-23T09:25:21;12.52;;;8.73;;
37409;SDS011;23275;48.914;12.566;2023-02-23T09:27:47;13.10;;;9.35;;
37409;SDS011;23275;48.914;12.566;2023-02-23T09:30:14;14.05;;;9.20;;
37409;SDS011;23275;48.914;12.566;2023-02-23T09:32:51;16.60;;;9.32;;
37409;SDS011;23275;48.914;12.566;2023-02-23T09:35:18;15.65;;;10.95;;
37409;SDS011;23275;48.914;12.566;2023-02-23T09:37:46;20.10;;;11.98;;
37409;SDS011;23275;48.914;12.566;2023-02-23T09:40:18;26.15;;;15.88;;
37409;SDS011;23275;48.914;12.566;2023-02-23T09:45:40;33.08;;;18.55;;
37409;SDS011;23275;48.914;12.566;2023-02-23T09:48:21;29.92;;;17.50;;
37409;SDS011;23275;48.914;12.566;2023-02-23T09:50:52;29.08;;;17.08;;
37409;SDS011;23275;48.914;12.566;2023-02-23T09:53:24;27.35;;;16.02;;
37409;SDS011;23275;48.914;12.566;2023-02-23T09:55:51;29.70;;;17.55;;
37409;SDS011;23275;48.914;12.566;2023-02-23T09:58:23;31.88;;;17.15;;
37409;SDS011;23275;48.914;12.566;2023-02-23T10:01:10;29.02;;;17.45;;
37409;SDS011;23275;48.914;12.566;2023-02-23T10:03:58;32.47;;;17.40;;
37409;SDS011;23275;48.914;12.566;2023-02-23T10:06:27;31.40;;;17.38;;
37409;SDS011;23275;48.914;12.566;2023-02-23T10:08:59;25.42;;;16.92;;
37409;SDS011;23275;48.914;12.566;2023-02-23T10:11:52;23.35;;;15.77;;
37409;SDS011;23275;48.914;12.566;2023-02-23T10:20:02;21.90;;;14.20;;
37409;SDS011;23275;48.914;12.566;2023-02-23T10:22:51;21.27;;;13.82;;
37409;SDS011;23275;48.914;12.566;2023-02-23T10:25:20;18.25;;;13.07;;
37409;SDS011;23275;48.914;12.566;2023-02-23T10:27:50;21.15;;;13.45;;
37409;SDS011;23275;48.914;12.566;2023-02-23T10:32:55;21.83;;;15.13;;
37409;SDS011;23275;48.914;12.566;2023-02-23T10:35:28;24.55;;;16.55;;
37409;SDS011;23275;48.914;12.566;2023-02-23T10:37:55;24.40;;;17.60;;
37409;SDS011;23275;48.914;12.566;2023-02-23T10:40:22;23.83;;;16.13;;
37409;SDS011;23275;48.914;12.566;2023-02-23T10:42:50;24.25;;;15.32;;
37409;SDS011;23275;48.914;12.566;2023-02-23T10:45:26;21.85;;;15.63;;
37409;SDS011;23275;48.914;12.566;2023-02-23T10:48:10;22.13;;;15.40;;
37409;SDS011;23275;48.914;12.566;2023-02-23T10:50:43;22.40;;;16.20;;
37409;SDS011;23275;48.914;12.566;2023-02-23T10:53:17;23.75;;;15.57;;
37409;SDS011;23275;48.914;12.566;2023-02-23T10:58:30;23.40;;;16.58;;
37409;SDS011;23275;48.914;12.566;2023-02-23T11:01:03;21.70;;;15.90;;
37409;SDS011;23275;48.914;12.566;2023-02-23T11:03:34;21.60;;;15.13;;
37409;SDS011;23275;48.914;12.566;2023-02-23T11:06:05;23.42;;;16.27;;
37409;SDS011;23275;48.914;12.566;2023-02-23T11:08:32;23.80;;;16.70;;
37409;SDS011;23275;48.914;12.566;2023-02-23T11:11:04;23.35;;;16.70;;
37409;SDS011;23275;48.914;12.566;2023-02-23T11:13:33;26.95;;;17.00;;
37409;SDS011;23275;48.914;12.566;2023-02-23T11:16:05;24.77;;;16.70;;
37409;SDS011;23275;48.914;12.566;2023-02-23T11:18:34;24.52;;;16.08;;
37409;SDS011;23275;48.914;12.566;2023-02-23T11:21:00;23.98;;;16.88;;
37409;SDS011;23275;48.914;12.566;2023-02-23T11:23:27;22.63;;;16.85;;
37409;SDS011;23275;48.914;12.566;2023-02-23T11:25:56;25.10;;;16.42;;
37409;SDS011;23275;48.914;12.566;2023-02-23T11:28:26;26.70;;;18.17;;
37409;SDS011;23275;48.914;12.566;2023-02-23T11:31:01;27.83;;;19.73;;
37409;SDS011;23275;48.914;12.566;2023-02-23T11:33:32;27.10;;;17.58;;
37409;SDS011;23275;48.914;12.566;2023-02-23T11:36:11;27.42;;;19.13;;
37409;SDS011;23275;48.914;12.566;2023-02-23T11:38:38;27.60;;;18.20;;
37409;SDS011;23275;48.914;12.566;2023-02-23T11:41:04;26.25;;;18.65;;
37409;SDS011;23275;48.914;12.566;2023-02-23T11:43:51;24.92;;;17.50;;
37409;SDS011;23275;48.914;12.566;2023-02-23T11:46:21;26.98;;;18.65;;
37409;SDS011;23275;48.914;12.566;2023-02-23T11:48:50;28.15;;;19.13;;
37409;SDS011;23275;48.914;12.566;2023-02-23T11:51:37;29.95;;;19.70;;
37409;SDS011;23275;48.914;12.566;2023-02-23T11:54:05;26.85;;;18.05;;
37409;SDS011;23275;48.914;12.566;2023-02-23T11:56:39;27.60;;;18.73;;
37409;SDS011;23275;48.914;12.566;2023-02-23T11:59:15;29.60;;;18.65;;
37409;SDS011;23275;48.914;12.566;2023-02-23T12:01:45;28.33;;;18.85;;
37409;SDS011;23275;48.914;12.566;2023-02-23T12:04:37;27.25;;;18.17;;
37409;SDS011;23275;48.914;12.566;2023-02-23T12:09:57;31.25;;;20.67;;
37409;SDS011;23275;48.914;12.566;2023-02-23T12:12:36;31.38;;;20.20;;
37409;SDS011;23275;48.914;12.566;2023-02-23T12:15:22;30.25;;;20.85;;
37409;SDS011;23275;48.914;12.566;2023-02-23T12:18:17;30.80;;;20.17;;
37409;SDS011;23275;48.914;12.566;2023-02-23T12:20:54;25.27;;;16.88;;
37409;SDS011;23275;48.914;12.566;2023-02-23T12:23:28;26.90;;;18.27;;
37409;SDS011;23275;48.914;12.566;2023-02-23T12:25:58;31.23;;;20.40;;
37409;SDS011;23275;48.914;12.566;2023-02-23T12:28:47;32.72;;;21.42;;
37409;SDS011;23275;48.914;12.566;2023-02-23T12:31:20;33.10;;;21.50;;
37409;SDS011;23275;48.914;12.566;2023-02-23T12:33:54;39.25;;;24.25;;
37409;SDS011;23275;48.914;12.566;2023-02-23T12:36:39;34.72;;;22.83;;
37409;SDS011;23275;48.914;12.566;2023-02-23T12:39:23;33.28;;;21.98;;
37409;SDS011;23275;48.914;12.566;2023-02-23T12:47:19;33.78;;;22.15;;
37409;SDS011;23275;48.914;12.566;2023-02-23T12:49:56;31.77;;;21.02;;
37409;SDS011;23275;48.914;12.566;2023-02-23T12:52:32;32.80;;;20.85;;
37409;SDS011;23275;48.914;12.566;2023-02-23T12:55:01;34.70;;;21.97;;
37409;SDS011;23275;48.914;12.566;2023-02-23T12:57:36;35.42;;;21.92;;
37409;SDS011;23275;48.914;12.566;2023-02-23T13:00:41;34.13;;;21.85;;
37409;SDS011;23275;48.914;12.566;2023-02-23T13:06:27;31.80;;;20.67;;
37409;SDS011;23275;48.914;12.566;2023-02-23T13:17:24;36.53;;;22.38;;
37409;SDS011;23275;48.914;12.566;2023-02-23T13:20:00;32.85;;;21.92;;
37409;SDS011;23275;48.914;12.566;2023-02-23T13:27:54;33.75;;;21.60;;
37409;SDS011;23275;48.914;12.566;2023-02-23T13:30:24;35.55;;;22.40;;
37409;SDS011;23275;48.914;12.566;2023-02-23T13:32:50;37.25;;;22.58;;
37409;SDS011;23275;48.914;12.566;2023-02-23T13:35:18;35.03;;;21.30;;
37409;SDS011;23275;48.914;12.566;2023-02-23T13:37:50;33.90;;;21.38;;
37409;SDS011;23275;48.914;12.566;2023-02-23T13:42:56;33.65;;;22.08;;
37409;SDS011;23275;48.914;12.566;2023-02-23T13:45:37;36.17;;;20.65;;
37409;SDS011;23275;48.914;12.566;2023-02-23T13:48:23;34.95;;;21.52;;
37409;SDS011;23275;48.914;12.566;2023-02-23T13:50:59;32.03;;;20.67;;
37409;SDS011;23275;48.914;12.566;2023-02-23T13:56:17;35.85;;;21.10;;
37409;SDS011;23275;48.914;12.566;2023-02-23T13:58:47;35.17;;;20.88;;
37409;SDS011;23275;48.914;12.566;2023-02-23T14:01:23;35.72;;;22.08;;
37409;SDS011;23275;48.914;12.566;2023-02-23T14:03:56;36.47;;;20.38;;
37409;SDS011;23275;48.914;12.566;2023-02-23T14:14:12;31.40;;;19.55;;
37409;SDS011;23275;48.914;12.566;2023-02-23T14:23:04;38.22;;;21.50;;
37409;SDS011;23275;48.914;12.566;2023-02-23T14:29:09;36.67;;;22.23;;
37409;SDS011;23275;48.914;12.566;2023-02-23T14:31:04;40.67;;;22.90;;
37409;SDS011;23275;48.914;12.566;2023-02-23T14:41:30;35.75;;;22.08;;
37409;SDS011;23275;48.914;12.566;2023-02-23T14:43:59;39.13;;;21.85;;
37409;SDS011;23275;48.914;12.566;2023-02-23T14:46:29;34.53;;;20.60;;
37409;SDS011;23275;48.914;12.566;2023-02-23T14:49:00;37.15;;;21.92;;
37409;SDS011;23275;48.914;12.566;2023-02-23T14:51:40;34.38;;;20.60;;
37409;SDS011;23275;48.914;12.566;2023-02-23T14:54:31;33.22;;;20.92;;
37409;SDS011;23275;48.914;12.566;2023-02-23T14:57:02;38.03;;;21.20;;
37409;SDS011;23275;48.914;12.566;2023-02-23T14:59:40;35.55;;;21.50;;
37409;SDS011;23275;48.914;12.566;2023-02-23T15:02:07;36.70;;;22.15;;
37409;SDS011;23275;48.914;12.566;2023-02-23T15:04:41;37.25;;;20.25;;
37409;SDS011;23275;48.914;12.566;2023-02-23T15:07:13;37.35;;;22.50;;
37409;SDS011;23275;48.914;12.566;2023-02-23T15:09:43;33.80;;;21.48;;
37409;SDS011;23275;48.914;12.566;2023-02-23T15:12:13;34.65;;;21.48;;
37409;SDS011;23275;48.914;12.566;2023-02-23T15:14:45;37.45;;;21.63;;
37409;SDS011;23275;48.914;12.566;2023-02-23T15:17:17;38.95;;;23.45;;
37409;SDS011;23275;48.914;12.566;2023-02-23T15:19:44;37.85;;;23.63;;
37409;SDS011;23275;48.914;12.566;2023-02-23T15:22:18;37.97;;;22.88;;
37409;SDS011;23275;48.914;12.566;2023-02-23T15:25:19;39.17;;;22.55;;
37409;SDS011;23275;48.914;12.566;2023-02-23T15:27:48;32.92;;;21.75;;
37409;SDS011;23275;48.914;12.566;2023-02-23T15:33:01;40.65;;;25.02;;
37409;SDS011;23275;48.914;12.566;2023-02-23T15:35:36;41.33;;;25.77;;
37409;SDS011;23275;48.914;12.566;2023-02-23T15:38:14;46.17;;;26.33;;
37409;SDS011;23275;48.914;12.566;2023-02-23T15:40:43;39.25;;;24.52;;
37409;SDS011;23275;48.914;12.566;2023-02-23T15:43:09;38.30;;;25.58;;
37409;SDS011;23275;48.914;12.566;2023-02-23T15:45:36;41.60;;;26.90;;
37409;SDS011;23275;48.914;12.566;2023-02-23T15:48:14;39.33;;;24.42;;
37409;SDS011;23275;48.914;12.566;2023-02-23T15:50:43;37.58;;;23.83;;
37409;SDS011;23275;48.914;12.566;2023-02-23T15:53:21;37.53;;;23.63;;
37409;SDS011;23275;48.914;12.566;2023-02-23T15:55:53;37.05;;;24.40;;
37409;SDS011;23275;48.914;12.566;2023-02-23T15:58:37;40.42;;;25.55;;
37409;SDS011;23275;48.914;12.566;2023-02-23T16:01:10;40.15;;;23.65;;
37409;SDS011;23275;48.914;12.566;2023-02-23T16:03:55;37.75;;;24.13;;
37409;SDS011;23275;48.914;12.566;2023-02-23T16:06:34;39.83;;;24.90;;
37409;SDS011;23275;48.914;12.566;2023-02-23T16:09:20;39.70;;;24.08;;
37409;SDS011;23275;48.914;12.566;2023-02-23T16:11:51;41.75;;;24.30;;
37409;SDS011;23275;48.914;12.566;2023-02-23T16:14:21;36.10;;;22.45;;
37409;SDS011;23275;48.914;12.566;2023-02-23T16:16:50;36.38;;;23.30;;
37409;SDS011;23275;48.914;12.566;2023-02-23T16:19:18;39.25;;;22.80;;
37409;SDS011;23275;48.914;12.566;2023-02-23T16:21:52;40.35;;;23.02;;
37409;SDS011;23275;48.914;12.566;2023-02-23T16:24:22;36.88;;;22.90;;
37409;SDS011;23275;48.914;12.566;2023-02-23T16:26:57;36.80;;;23.23;;